• Join FlightAware (Why Join?)
  • Login
  • US Flag 
12:49AM EDT


 

Airport Tracker/Info


-or-


 

Live Flight TrackerFlight Track Log ✈ RPA3392 ✈ 16-May-2013 ✈ KMSP - KDCA

Flight Track Log - Related Links

Times and Time Zones

All times are in EDT time to prevent confusion due to time zone crossing. See the RPA3392 flight status page for this flight to view local times or setup timezone preferences in your user account.

Time Position Orientation Groundspeed Altitude Reporting Facility
EDT Latitude Longitude Course Direction KTS MPH feet Rate Location/Type
05:56PM 44.8500 -93.2333 120° Southeast 160 184 1,600  Level Minneapolis TRACON
05:57PM 44.8267 -93.1772 120° Southeast 197 227 3,100 1,980 Climbing Minneapolis Center
05:58PM 44.7889 -93.0908 122° Southeast 260 299 5,600 2,700 Climbing Minneapolis Center
05:59PM 44.7603 -92.9900 112° Southeast 276 318 8,800 2,640 Climbing Minneapolis Center
06:00PM 44.7325 -92.8833 110° East 288 331 11,100 2,400 Climbing Minneapolis Center
06:01PM 44.6942 -92.7361 110° East 334 384 13,900 2,340 Climbing Minneapolis Center
06:02PM 44.6500 -92.6131 117° Southeast 353 406 16,000 2,040 Climbing Minneapolis Center
06:03PM 44.6031 -92.4867 118° Southeast 366 421 18,200 1,920 Climbing Minneapolis Center
06:04PM 44.5539 -92.3533 117° Southeast 382 440 20,000 1,800 Climbing Minneapolis Center
06:05PM 44.5017 -92.2153 118° Southeast 398 458 22,000 1,740 Climbing Minneapolis Center
06:06PM 44.4500 -92.0739 117° Southeast 408 470 23,600 1,680 Climbing Minneapolis Center
06:07PM 44.3831 -91.8981 118° Southeast 426 490 25,500 1,560 Climbing Minneapolis Center
06:08PM 44.3275 -91.7481 117° Southeast 433 498 26,900 1,200 Climbing Minneapolis Center
06:09PM 44.2686 -91.5964 118° Southeast 442 509 28,100 1,080 Climbing Minneapolis Center
06:10PM 44.2097 -91.4408 118° Southeast 449 517 29,200 1,020 Climbing Minneapolis Center
06:11PM 44.1489 -91.2808 118° Southeast 460 529 30,300 900 Climbing Minneapolis Center
06:12PM 44.0886 -91.1214 118° Southeast 466 536 31,100 780 Climbing Minneapolis Center
06:13PM 44.0131 -90.9278 118° Southeast 473 544 32,000 840 Climbing Minneapolis Center
06:14PM 43.9500 -90.7650 118° Southeast 480 552 32,900 720 Climbing Minneapolis Center
06:15PM 43.8858 -90.6008 118° Southeast 484 557 33,600 660 Climbing Minneapolis Center
06:16PM 43.8219 -90.4381 119° Southeast 484 557 34,300 600 Climbing Minneapolis Center
06:17PM 43.7578 -90.2750 119° Southeast 486 559 34,900 300 Climbing Minneapolis Center
06:18PM 43.6772 -90.0797 120° Southeast 494 568 35,000  Climbing Minneapolis Center
06:19PM 43.6122 -89.9150 119° Southeast 491 565 35,000  Level Minneapolis Center
06:20PM 43.5678 -89.8050 119° Southeast 492 566 35,000  Level Chicago Center
06:21PM 43.5122 -89.6342 114° Southeast 491 565 35,000  Level Chicago Center
06:22PM 43.4642 -89.4614 111° Southeast 484 557 35,000  Level Chicago Center
06:23PM 43.4144 -89.2894 112° Southeast 484 557 35,000  Level Chicago Center
06:24PM 43.3564 -89.1211 115° Southeast 487 560 35,000  Level Chicago Center
06:25PM 43.2878 -88.9250 116° Southeast 491 565 35,000  Level Chicago Center
06:26PM 43.2294 -88.7594 116° Southeast 488 562 35,000  Level Chicago Center
06:27PM 43.1700 -88.5931 116° Southeast 490 564 35,000  Level Chicago Center
06:28PM 43.1128 -88.4269 115° Southeast 488 562 35,000  Level Chicago Center
06:29PM 43.0439 -88.2339 116° Southeast 488 562 35,000  Level Chicago Center
06:30PM 42.9850 -88.0681 116° Southeast 487 560 35,000  Level Chicago Center
06:31PM 42.9250 -87.9031 116° Southeast 487 560 35,000  Level Chicago Center
06:32PM 42.8653 -87.7392 116° Southeast 484 557 35,000  Level Chicago Center
06:33PM 42.8056 -87.5736 116° Southeast 486 559 35,000  Level Chicago Center
06:35PM 42.7336 -87.3817 117° Southeast 487 560 35,000  Level Chicago Center
06:36PM 42.6750 -87.2228 117° Southeast 488 562 35,000  Level Chicago Center
06:37PM 42.6139 -87.0589 117° Southeast 490 564 35,000  Level Chicago Center
06:38PM 42.5411 -86.8686 117° Southeast 487 560 35,000  Level Chicago Center
06:39PM 42.4806 -86.7056 117° Southeast 487 560 35,000  Level Chicago Center
06:40PM 42.4189 -86.5406 117° Southeast 484 557 35,000  Level Chicago Center
06:41PM 42.3569 -86.3789 117° Southeast 487 560 35,000  Level Chicago Center
06:42PM 42.2911 -86.2081 117° Southeast 484 557 35,000 480 Level Chicago Center
06:43PM 42.2297 -86.0481 117° Southeast 480 552 36,000 960 Climbing Chicago Center
06:44PM 42.1744 -85.9075 118° Southeast 468 539 37,000 480 Climbing Chicago Center
06:45PM 42.1017 -85.7211 118° Southeast 469 540 37,000  Level Chicago Center
06:46PM 42.0397 -85.5608 117° Southeast 480 552 37,000  Level Chicago Center
06:47PM 41.9700 -85.3839 118° Southeast 483 556 37,000  Level Chicago Center
06:48PM 41.9064 -85.2222 118° Southeast 483 556 37,000  Level Chicago Center
06:49PM 41.8417 -85.0600 118° Southeast 487 560 37,000  Level Chicago Center
06:50PM 41.7742 -84.9078 121° Southeast 485 558 37,000  Level Cleveland Center
06:51PM 41.6992 -84.7383 121° Southeast 480 552 37,000  Level Cleveland Center
06:52PM 41.6294 -84.5867 122° Southeast 480 552 37,000  Level Cleveland Center
06:53PM 41.5597 -84.4325 121° Southeast 485 558 37,000  Level Cleveland Center
06:54PM 41.4897 -84.2786 121° Southeast 490 564 37,000  Level Cleveland Center
06:55PM 41.4172 -84.1303 123° Southeast 485 558 37,000  Level Cleveland Center
06:56PM 41.3625 -84.0111 121° Southeast 485 558 37,000  Level Cleveland Center
06:57PM 41.2800 -83.8300 121° Southeast 485 558 37,000  Level Cleveland Center
06:58PM 41.2450 -83.6625 105° East 467 537 37,000  Level Cleveland Center
06:59PM 41.2517 -83.4886 87° East 461 531 37,000  Level Cleveland Center
07:00PM 41.2581 -83.3150 87° East 461 531 37,000  Level Cleveland Center
07:01PM 41.2172 -83.1892 113° Southeast 455 524 37,000  Level Cleveland Center
07:02PM 41.1439 -83.0233 120° Southeast 455 524 37,000  Level Cleveland Center
07:03PM 41.0994 -82.8536 109° East 477 549 37,000  Level Cleveland Center
07:04PM 41.0589 -82.6869 108° East 477 549 37,000  Level Cleveland Center
07:05PM 41.0158 -82.5178 109° East 477 549 37,000  Level Cleveland Center
07:06PM 40.9708 -82.3350 108° East 483 556 37,000  Level Cleveland Center
07:07PM 40.9275 -82.1633 108° East 483 556 37,000  Level Cleveland Center
07:08PM 40.8839 -81.9947 109° East 488 562 37,000  Level Cleveland Center
07:09PM 40.8400 -81.8236 109° East 488 562 37,000  Level Cleveland Center
07:10PM 40.7958 -81.6528 109° East 488 562 37,000  Level Cleveland Center
07:11PM 40.7536 -81.4875 109° East 477 549 37,000  Level Cleveland Center
07:12PM 40.6711 -81.3522 129° Southeast 470 541 37,000  Level Cleveland Center
07:13PM 40.5842 -81.2447 137° Southeast 475 547 37,000  Level Cleveland Center
07:14PM 40.4847 -81.1344 140° Southeast 470 541 37,000  Level Cleveland Center
07:15PM 40.3853 -81.0247 140° Southeast 470 541 37,000  Level Cleveland Center
07:16PM 40.2897 -80.9178 139° Southeast 470 541 37,000  Level Cleveland Center
07:17PM 40.1817 -80.7950 139° Southeast 465 535 37,000  Level Cleveland Center
07:18PM 40.0858 -80.6889 140° Southeast 465 535 37,000  Level Cleveland Center
07:19PM 39.9858 -80.5778 140° Southeast 460 529 37,000 -600 Level Cleveland Center
07:21PM 39.7919 -80.3661 140° Southeast 480 552 35,200 -900 Descending Washington Center
07:22PM 39.6922 -80.2544 139° Southeast 480 552 34,300 -900 Descending Washington Center
07:23PM 39.5922 -80.1481 141° Southeast 480 552 33,400 -900 Descending Washington Center
07:24PM 39.4942 -80.0397 140° Southeast 480 552 32,500 -960 Descending Washington Center
07:25PM 39.3939 -79.9317 140° Southeast 480 552 31,600 -780 Descending Washington Center
07:26PM 39.3086 -79.8058 131° Southeast 475 547 31,000 -360 Descending Washington Center
07:27PM 39.2811 -79.6378 102° East 460 529 31,000  Level Washington Center
07:28PM 39.2678 -79.4708 96° East 452 520 31,000 -1,020 Level Washington Center
07:29PM 39.2544 -79.3014 96° East 463 533 29,000 -1,980 Descending Washington Center
07:30PM 39.2389 -79.1208 96° East 468 539 27,100 -1,500 Descending Washington Center
07:31PM 39.2247 -78.9594 96° East 463 533 26,000 -1,740 Descending Washington Center
07:32PM 39.2103 -78.8061 97° East 450 518 23,700 -2,100 Descending Washington Center
07:33PM 39.1967 -78.6878 98° East 439 505 21,900 -2,220 Descending Washington Center
07:34PM 39.1803 -78.5156 97° East 412 474 19,300 -2,340 Descending Washington Center
07:35PM 39.1647 -78.3758 98° East 400 460 17,300 -1,620 Descending Washington Center
07:36PM 39.1342 -78.2461 107° East 387 445 16,100 -1,140 Descending Washington Center
07:37PM 39.1036 -78.1192 107° East 381 438 15,100 -1,080 Descending Washington Center
07:38PM 39.0686 -77.9925 110° East 376 433 14,000 -1,020 Descending Washington Center
07:39PM 39.0436 -77.8928 108° East 365 420 13,100 -1,500 Descending Washington Center
07:40PM 39.0086 -77.7528 108° East 360 414 11,100 -1,140 Descending Washington Center
07:41PM 38.9772 -77.6369 109° East 345 397 10,900 -900 Descending Washington Center
07:42PM 38.9500 -77.5333 109° East 320 368 9,500 -1,620 Descending Potomac TRACON
07:43PM 38.9000 -77.4500 128° Southeast 316 364 8,000 -1,500 Descending Potomac TRACON
07:44PM 38.8667 -77.3333 110° East 303 349 6,400 -960 Descending Potomac TRACON
07:45PM 38.8333 -77.2500 117° Southeast 299 344 6,100 -180 Descending Potomac TRACON
07:46PM 38.7833 -77.1667 128° Southeast 290 334 6,100 -240 Level Potomac TRACON
07:47PM 38.7333 -77.1167 142° Southeast 247 284 5,600 -900 Descending Potomac TRACON
07:48PM 38.6833 -77.0833 153° Southeast 257 296 4,300 -1,380 Descending Potomac TRACON
07:49PM 38.7167 -77.0333 49° Northeast 215 247 3,000 -1,200 Descending Potomac TRACON
07:50PM 38.7667 -77.0333 360° North 188 216 2,000 -1,020 Descending Potomac TRACON
07:52PM 38.8500 -77.0333 North  Level FlightAware Approximate
07:59PM 38.8519 -77.0377 North  Level Estimated
08:00PM 38.8500 -77.0333 North  Level FlightAware Approximate
08:01PM 38.8519 -77.0377 North  Level Estimated